createdAt,value
2019-03-27T00:02:02.713Z,12.27
2019-03-27T00:04:31.379Z,12.77
2019-03-27T00:07:00.758Z,14.63
2019-03-27T00:09:30.064Z,12.07
2019-03-27T00:11:59.465Z,9.03
2019-03-27T00:14:28.124Z,8.33
2019-03-27T00:16:57.679Z,9.45
2019-03-27T00:19:26.251Z,12.53
2019-03-27T00:21:55.569Z,15.75
2019-03-27T00:24:24.145Z,8.43
2019-03-27T00:26:52.732Z,6.77
2019-03-27T00:29:22.079Z,9.87
2019-03-27T00:31:51.658Z,4.90
2019-03-27T00:34:21.004Z,10.00
2019-03-27T00:36:49.636Z,8.88
2019-03-27T00:39:19.211Z,12.25
2019-03-27T00:41:47.800Z,7.03
2019-03-27T00:44:17.108Z,5.25
2019-03-27T00:46:46.421Z,9.80
2019-03-27T00:49:15.053Z,9.08
2019-03-27T00:51:44.426Z,6.50
2019-03-27T00:54:13.726Z,8.80
2019-03-27T00:56:43.112Z,10.45
2019-03-27T00:59:12.414Z,9.18
2019-03-27T01:01:41.013Z,18.40
2019-03-27T01:04:10.302Z,12.65
2019-03-27T01:06:39.593Z,9.85
2019-03-27T01:09:08.254Z,7.67
2019-03-27T01:11:37.569Z,5.35
2019-03-27T01:14:06.251Z,8.05
2019-03-27T01:16:35.609Z,17.00
2019-03-27T01:19:04.914Z,10.45
2019-03-27T01:21:34.556Z,14.75
2019-03-27T01:24:03.933Z,9.25
2019-03-27T01:26:33.219Z,14.98
2019-03-27T01:29:02.589Z,6.25
2019-03-27T01:31:32.145Z,20.70
2019-03-27T01:34:01.717Z,6.70
2019-03-27T01:36:30.296Z,17.05
2019-03-27T01:38:59.596Z,8.58
2019-03-27T01:41:28.166Z,7.87
2019-03-27T01:43:57.470Z,7.67
2019-03-27T01:46:26.757Z,10.53
2019-03-27T01:48:56.068Z,7.85
2019-03-27T01:51:25.437Z,7.42
2019-03-27T01:53:54.746Z,15.75
2019-03-27T01:56:23.337Z,10.08
2019-03-27T01:58:52.635Z,20.62
2019-03-27T02:01:21.929Z,15.78
2019-03-27T02:03:51.241Z,10.45
2019-03-27T02:06:19.858Z,10.88
2019-03-27T02:08:48.428Z,7.75
2019-03-27T02:11:17.845Z,11.38
2019-03-27T02:13:46.429Z,17.80
2019-03-27T02:16:14.997Z,6.65
2019-03-27T02:18:43.596Z,14.60
2019-03-27T02:21:12.961Z,11.55
2019-03-27T02:23:42.253Z,19.75
2019-03-27T02:26:11.569Z,14.35
2019-03-27T02:28:40.866Z,11.80
2019-03-27T02:31:09.447Z,12.40
2019-03-27T02:33:38.788Z,18.52
2019-03-27T02:36:08.137Z,8.48
2019-03-27T02:38:37.522Z,15.50
2019-03-27T02:41:06.096Z,11.70
2019-03-27T02:43:34.798Z,17.57
2019-03-27T02:46:04.153Z,13.35
2019-03-27T02:48:32.735Z,20.60
2019-03-27T02:51:02.054Z,14.15
2019-03-27T02:53:31.341Z,14.25
2019-03-27T02:56:01.109Z,11.40
2019-03-27T02:58:30.413Z,13.28
2019-03-27T03:00:59.859Z,12.93
2019-03-27T03:03:28.710Z,20.30
2019-03-27T03:05:58.005Z,31.70
2019-03-27T03:08:26.603Z,15.98
2019-03-27T03:10:56.169Z,14.25
2019-03-27T03:13:25.467Z,14.15
2019-03-27T03:15:54.137Z,19.25
2019-03-27T03:18:22.710Z,15.45
2019-03-27T03:20:52.009Z,16.93
2019-03-27T03:23:21.297Z,13.62
2019-03-27T03:25:50.600Z,20.50
2019-03-27T03:28:19.890Z,16.55
2019-03-27T03:30:49.186Z,19.02
2019-03-27T03:33:18.527Z,12.73
2019-03-27T03:35:47.882Z,13.85
2019-03-27T03:38:17.273Z,17.27
2019-03-27T03:40:45.893Z,13.72
2019-03-27T03:43:15.206Z,15.65
2019-03-27T03:45:43.812Z,25.25
2019-03-27T03:48:13.102Z,22.37
2019-03-27T03:50:43.961Z,14.03
2019-03-27T03:53:14.927Z,18.32
2019-03-27T03:55:44.806Z,14.78
2019-03-27T03:58:14.778Z,14.33
2019-03-27T04:00:44.198Z,17.42
2019-03-27T04:03:13.731Z,15.10
2019-03-27T04:05:43.481Z,12.18
2019-03-27T04:08:12.790Z,23.35
2019-03-27T04:10:42.692Z,24.10
2019-03-27T04:13:12.003Z,19.95
2019-03-27T04:15:40.658Z,13.78
2019-03-27T04:18:09.978Z,22.10
2019-03-27T04:20:39.287Z,12.85
2019-03-27T04:23:08.921Z,21.23
2019-03-27T04:26:07.227Z,20.00
2019-03-27T04:28:08.976Z,20.57
2019-03-27T04:30:38.269Z,30.95
2019-03-27T04:33:07.567Z,20.70
2019-03-27T04:35:36.158Z,21.12
2019-03-27T04:38:05.573Z,23.00
2019-03-27T04:40:34.935Z,17.75
2019-03-27T04:43:04.221Z,16.35
2019-03-27T04:45:33.522Z,26.23
2019-03-27T04:48:02.105Z,27.40
2019-03-27T04:50:31.556Z,21.65
2019-03-27T04:53:00.883Z,23.07
2019-03-27T04:55:30.188Z,38.33
2019-03-27T04:57:59.525Z,40.40
2019-03-27T05:00:28.850Z,26.10
2019-03-27T05:02:58.268Z,16.55
2019-03-27T05:05:27.572Z,13.10
2019-03-27T05:07:56.866Z,21.33
2019-03-27T05:10:26.290Z,23.15
2019-03-27T05:12:54.889Z,22.30
2019-03-27T05:15:24.198Z,35.13
2019-03-27T05:17:53.506Z,19.67
2019-03-27T05:20:22.081Z,16.75
2019-03-27T05:22:51.393Z,21.35
2019-03-27T05:25:21.269Z,19.82
2019-03-27T05:27:50.570Z,16.30
2019-03-27T05:30:28.024Z,26.23
2019-03-27T05:33:01.797Z,31.60
2019-03-27T05:35:31.093Z,20.60
2019-03-27T05:38:00.530Z,24.67
2019-03-27T05:40:29.832Z,26.48
2019-03-27T05:43:01.004Z,42.05
2019-03-27T05:45:30.681Z,33.53
2019-03-27T05:48:00.199Z,22.93
2019-03-27T05:50:32.559Z,28.10
2019-03-27T05:53:04.323Z,30.60
2019-03-27T05:55:32.902Z,31.97
2019-03-27T05:58:02.193Z,24.17
2019-03-27T06:00:33.390Z,39.30
2019-03-27T06:03:02.664Z,22.33
2019-03-27T06:05:31.961Z,23.67
2019-03-27T06:08:01.345Z,25.37
2019-03-27T06:10:29.925Z,25.03
2019-03-27T06:12:59.237Z,28.83
2019-03-27T06:15:28.529Z,22.10
2019-03-27T06:17:57.925Z,33.23
2019-03-27T06:20:27.295Z,20.80
2019-03-27T06:22:56.581Z,30.60
2019-03-27T06:25:25.966Z,23.80
2019-03-27T06:27:55.288Z,27.87
2019-03-27T06:30:24.661Z,24.10
2019-03-27T06:32:55.523Z,26.93
2019-03-27T06:35:24.889Z,29.20
2019-03-27T06:37:54.229Z,26.30
2019-03-27T06:40:22.802Z,19.00
2019-03-27T06:42:52.094Z,32.93
2019-03-27T06:45:20.750Z,23.50
2019-03-27T06:47:49.569Z,19.83
2019-03-27T06:50:18.230Z,21.63
2019-03-27T06:52:47.517Z,20.27
2019-03-27T06:55:16.826Z,26.53
2019-03-27T06:57:46.192Z,20.63
2019-03-27T07:00:14.977Z,30.50
2019-03-27T07:02:44.525Z,27.47
2019-03-27T07:05:13.297Z,28.70
2019-03-27T07:07:41.872Z,28.93
2019-03-27T07:10:10.554Z,25.17
2019-03-27T07:12:42.046Z,27.87
2019-03-27T07:15:10.622Z,20.17
2019-03-27T07:17:40.185Z,22.30
2019-03-27T07:20:09.081Z,22.53
2019-03-27T07:22:38.645Z,26.93
2019-03-27T07:25:09.153Z,25.33
2019-03-27T07:27:37.722Z,28.07
2019-03-27T07:30:08.001Z,24.60
2019-03-27T07:32:36.587Z,27.87
2019-03-27T07:35:05.274Z,20.97
2019-03-27T07:37:33.846Z,17.70
2019-03-27T07:40:03.213Z,27.73
2019-03-27T07:42:31.794Z,31.43
2019-03-27T07:45:01.076Z,26.57
2019-03-27T07:47:50.052Z,21.67
2019-03-27T07:50:24.116Z,19.03
2019-03-27T07:52:53.472Z,25.97
2019-03-27T07:55:22.757Z,28.73
2019-03-27T07:57:52.139Z,23.90
2019-03-27T08:00:22.629Z,24.73
2019-03-27T08:02:51.206Z,33.03
2019-03-27T08:05:19.789Z,25.83
2019-03-27T08:07:49.104Z,43.87
2019-03-27T08:10:17.760Z,18.23
2019-03-27T08:12:46.376Z,35.23
2019-03-27T08:15:15.806Z,27.87
2019-03-27T08:17:44.385Z,27.87
2019-03-27T08:20:13.140Z,26.00
2019-03-27T08:22:41.728Z,22.90
2019-03-27T08:25:11.289Z,29.87
2019-03-27T08:27:40.606Z,20.77
2019-03-27T08:30:13.081Z,23.13
2019-03-27T08:32:42.440Z,36.17
2019-03-27T08:35:12.042Z,35.03
2019-03-27T08:37:41.503Z,31.47
2019-03-27T08:40:10.421Z,42.37
2019-03-27T08:42:39.081Z,41.83
2019-03-27T08:45:08.823Z,27.00
2019-03-27T08:47:38.216Z,32.07
2019-03-27T08:50:08.597Z,42.13
2019-03-27T08:52:37.967Z,32.30
2019-03-27T08:55:07.817Z,46.07
2019-03-27T08:57:37.281Z,39.50
2019-03-27T09:00:08.923Z,44.60
2019-03-27T09:02:38.251Z,36.07
2019-03-27T09:05:08.074Z,33.60
2019-03-27T09:07:37.613Z,33.47
2019-03-27T09:10:07.553Z,40.03
2019-03-27T09:12:37.117Z,47.60
2019-03-27T09:15:06.212Z,36.10
2019-03-27T09:17:35.821Z,45.40
2019-03-27T09:20:06.110Z,45.10
2019-03-27T09:22:34.686Z,39.10
2019-03-27T09:25:04.857Z,34.80
2019-03-27T09:27:33.450Z,44.73
2019-03-27T09:30:02.905Z,44.07
2019-03-27T09:32:32.206Z,51.23
2019-03-27T09:35:01.595Z,48.53
2019-03-27T09:37:31.211Z,62.07
2019-03-27T09:39:59.870Z,43.33
2019-03-27T09:42:28.453Z,47.27
2019-03-27T09:44:57.041Z,44.27
2019-03-27T09:47:25.614Z,45.27
2019-03-27T09:49:54.942Z,40.77
2019-03-27T09:52:24.553Z,46.00
2019-03-27T09:54:53.860Z,56.07
2019-03-27T09:57:23.227Z,45.67
2019-03-27T09:59:52.526Z,50.60
2019-03-27T10:02:21.813Z,53.60
2019-03-27T10:04:51.113Z,59.23
2019-03-27T10:07:20.486Z,47.03
2019-03-27T10:09:50.453Z,47.80
2019-03-27T10:12:19.989Z,55.30
2019-03-27T10:14:49.389Z,55.97
2019-03-27T10:17:18.678Z,66.57
2019-03-27T10:19:48.006Z,41.47
2019-03-27T10:22:17.305Z,51.77
2019-03-27T10:24:46.618Z,52.00
2019-03-27T10:27:16.030Z,54.60
2019-03-27T10:29:45.413Z,49.37
2019-03-27T10:32:14.789Z,48.43
2019-03-27T10:34:44.086Z,58.50
2019-03-27T10:37:13.400Z,43.50
2019-03-27T10:39:41.980Z,44.00
2019-03-27T10:42:11.288Z,50.47
2019-03-27T10:44:39.885Z,45.70
2019-03-27T10:47:10.333Z,48.37
2019-03-27T10:49:39.673Z,39.37
2019-03-27T10:52:09.049Z,44.30
2019-03-27T10:54:38.349Z,34.63
2019-03-27T10:57:07.677Z,46.33
2019-03-27T10:59:36.999Z,36.43
2019-03-27T11:02:06.633Z,47.17
2019-03-27T11:04:36.037Z,38.43
2019-03-27T11:07:04.706Z,37.50
2019-03-27T11:09:34.081Z,39.20
2019-03-27T11:12:03.424Z,45.73
2019-03-27T11:14:38.217Z,42.00
2019-03-27T11:17:03.861Z,46.00
2019-03-27T11:19:33.762Z,44.53
2019-03-27T11:22:02.517Z,41.60
2019-03-27T11:24:32.078Z,41.07
2019-03-27T11:27:01.488Z,41.87
2019-03-27T11:29:30.887Z,41.87
2019-03-27T11:32:00.296Z,38.67
2019-03-27T11:34:29.593Z,48.00
2019-03-27T11:36:58.958Z,45.73
2019-03-27T11:39:27.524Z,43.07
2019-03-27T11:41:56.113Z,34.17
2019-03-27T11:44:25.417Z,41.13
2019-03-27T11:46:54.721Z,43.13
2019-03-27T11:49:24.245Z,38.97
2019-03-27T11:51:53.693Z,34.10
2019-03-27T11:54:22.289Z,30.40
2019-03-27T11:56:51.691Z,32.83
2019-03-27T11:59:20.390Z,30.07
2019-03-27T12:01:49.698Z,33.10
2019-03-27T12:04:19.239Z,29.63
2019-03-27T12:06:47.813Z,23.97
2019-03-27T12:09:17.154Z,29.73
2019-03-27T12:11:45.938Z,33.47
2019-03-27T12:14:14.551Z,29.57
2019-03-27T12:16:43.320Z,27.43
2019-03-27T12:19:11.979Z,24.57
2019-03-27T12:21:41.273Z,29.43
2019-03-27T12:24:10.585Z,28.80
2019-03-27T12:26:39.872Z,40.40
2019-03-27T12:29:09.166Z,34.70
2019-03-27T12:31:38.453Z,36.97
2019-03-27T12:34:07.779Z,36.63
2019-03-27T12:36:37.177Z,39.03
2019-03-27T12:39:06.636Z,35.17
2019-03-27T12:41:36.041Z,34.03
2019-03-27T12:44:05.516Z,34.27
2019-03-27T12:46:34.145Z,34.47
2019-03-27T12:49:03.456Z,36.60
2019-03-27T12:51:32.029Z,39.73
2019-03-27T12:54:00.688Z,32.97
2019-03-27T12:56:30.149Z,42.10
2019-03-27T12:58:58.737Z,41.83
2019-03-27T13:01:28.112Z,39.90
2019-03-27T13:03:56.856Z,47.03
2019-03-27T13:06:25.500Z,49.20
2019-03-27T13:08:54.138Z,42.07
2019-03-27T13:11:23.738Z,36.63
2019-03-27T13:13:52.282Z,26.97
2019-03-27T13:16:23.397Z,42.07
2019-03-27T13:18:52.705Z,37.00
2019-03-27T13:21:26.534Z,33.60
2019-03-27T13:23:53.222Z,36.90
2019-03-27T13:26:21.870Z,41.47
2019-03-27T13:28:51.167Z,33.00
2019-03-27T13:31:22.726Z,34.40
2019-03-27T13:33:53.578Z,39.50
2019-03-27T13:36:22.885Z,26.87
2019-03-27T13:38:51.481Z,28.37
2019-03-27T13:41:20.133Z,27.97
2019-03-27T13:43:48.713Z,23.67
2019-03-27T13:46:17.354Z,25.23
2019-03-27T13:48:46.700Z,27.97
2019-03-27T13:51:16.185Z,43.07
2019-03-27T13:53:44.825Z,33.10
2019-03-27T13:56:13.650Z,34.43
2019-03-27T13:58:42.969Z,42.40
2019-03-27T14:01:13.043Z,29.93
2019-03-27T14:03:42.450Z,27.63
2019-03-27T14:06:11.841Z,37.37
2019-03-27T14:08:41.148Z,30.13
2019-03-27T14:11:09.769Z,19.20
2019-03-27T14:13:38.348Z,30.17
2019-03-27T14:16:09.904Z,25.97
2019-03-27T14:18:38.468Z,26.73
2019-03-27T14:21:07.073Z,27.43
2019-03-27T14:23:36.344Z,26.50
2019-03-27T14:26:05.126Z,24.70
2019-03-27T14:28:33.710Z,25.33
2019-03-27T14:31:03.028Z,24.87
2019-03-27T14:33:32.312Z,22.43
2019-03-27T14:36:01.619Z,26.23
2019-03-27T14:38:30.929Z,18.77
2019-03-27T14:40:59.545Z,26.63
2019-03-27T14:43:28.381Z,29.07
2019-03-27T14:45:59.213Z,25.17
2019-03-27T14:48:28.618Z,31.67
2019-03-27T14:50:59.150Z,24.87
2019-03-27T14:53:28.445Z,24.37
2019-03-27T14:55:57.989Z,33.03
2019-03-27T14:58:27.281Z,27.07
2019-03-27T15:00:55.887Z,23.17
2019-03-27T15:03:25.185Z,22.30
2019-03-27T15:05:53.755Z,20.27
2019-03-27T15:08:23.437Z,29.53
2019-03-27T15:10:52.113Z,23.10
2019-03-27T15:13:24.502Z,26.77
2019-03-27T15:15:53.889Z,24.13
2019-03-27T15:18:24.555Z,15.97
2019-03-27T15:20:53.862Z,20.13
2019-03-27T15:23:23.234Z,22.13
2019-03-27T15:25:52.885Z,24.87
2019-03-27T15:28:22.265Z,20.03
2019-03-27T15:30:51.685Z,20.33
2019-03-27T15:33:20.998Z,27.50
2019-03-27T15:35:49.656Z,22.50
2019-03-27T15:38:19.138Z,25.93
2019-03-27T15:40:47.798Z,25.33
2019-03-27T15:43:17.084Z,22.07
2019-03-27T15:45:46.449Z,25.23
2019-03-27T15:48:15.761Z,25.73
2019-03-27T15:50:56.792Z,23.07
2019-03-27T15:53:16.951Z,17.70
2019-03-27T15:55:46.233Z,17.23
2019-03-27T15:58:15.634Z,33.17
2019-03-27T16:00:44.278Z,16.33
2019-03-27T16:03:13.654Z,19.23
2019-03-27T16:05:43.240Z,17.97
2019-03-27T16:08:11.813Z,21.83
2019-03-27T16:10:43.014Z,18.87
2019-03-27T16:13:11.673Z,21.93
2019-03-27T16:15:40.329Z,20.50
2019-03-27T16:18:09.626Z,19.83
2019-03-27T16:20:39.241Z,19.43
2019-03-27T16:23:08.601Z,19.23
2019-03-27T16:25:37.893Z,22.00
2019-03-27T16:28:06.486Z,17.97
2019-03-27T16:30:36.159Z,20.40
2019-03-27T16:33:05.529Z,24.20
2019-03-27T16:35:34.113Z,21.53
2019-03-27T16:38:03.110Z,17.63
2019-03-27T16:40:59.857Z,14.87
2019-03-27T16:43:29.210Z,13.43
2019-03-27T16:45:57.791Z,17.17
2019-03-27T16:48:27.106Z,11.90
2019-03-27T16:50:56.470Z,18.13
2019-03-27T16:53:25.061Z,18.03
2019-03-27T16:55:54.404Z,15.10
2019-03-27T16:58:23.065Z,15.00
2019-03-27T17:00:52.509Z,17.57
2019-03-27T17:03:21.985Z,18.87
2019-03-27T17:05:54.110Z,14.47
2019-03-27T17:08:21.673Z,14.53
2019-03-27T17:10:50.381Z,20.27
2019-03-27T17:13:19.758Z,23.73
2019-03-27T17:15:48.394Z,16.33
2019-03-27T17:18:17.676Z,20.77
2019-03-27T17:20:47.182Z,15.13
2019-03-27T17:23:18.583Z,16.20
2019-03-27T17:25:46.973Z,18.17
2019-03-27T17:28:16.342Z,18.10
2019-03-27T17:30:45.736Z,11.00
2019-03-27T17:33:15.210Z,12.20
2019-03-27T17:35:43.803Z,10.37
2019-03-27T17:38:13.270Z,15.40
2019-03-27T17:40:42.589Z,21.30
2019-03-27T17:43:21.737Z,15.67
2019-03-27T17:45:59.299Z,14.53
2019-03-27T17:48:28.689Z,18.70
2019-03-27T17:50:57.999Z,24.10
2019-03-27T17:53:31.873Z,16.07
2019-03-27T17:55:58.353Z,13.17
2019-03-27T17:58:27.665Z,16.43
2019-03-27T18:01:00.878Z,22.03
2019-03-27T18:03:29.509Z,12.37
2019-03-27T18:05:58.889Z,15.37
2019-03-27T18:08:27.529Z,17.20
2019-03-27T18:10:56.861Z,18.47
2019-03-27T18:13:32.161Z,29.00
2019-03-27T18:16:22.610Z,22.17
2019-03-27T18:22:20.546Z,15.20
2019-03-27T18:24:49.186Z,12.87
2019-03-27T18:27:18.529Z,13.90
2019-03-27T18:29:47.956Z,16.50
2019-03-27T18:32:17.277Z,12.17
2019-03-27T18:34:45.874Z,17.30
2019-03-27T18:37:14.450Z,18.03
2019-03-27T18:39:43.861Z,16.43
2019-03-27T18:42:14.462Z,15.30
2019-03-27T18:44:43.174Z,22.90
2019-03-27T18:47:11.757Z,47.93
2019-03-27T18:49:41.042Z,21.77
2019-03-27T18:52:09.730Z,14.27
2019-03-27T18:54:39.025Z,11.53
2019-03-27T18:57:08.329Z,10.27
2019-03-27T18:59:37.690Z,15.10
2019-03-27T19:02:07.065Z,11.33
2019-03-27T19:04:36.484Z,16.93
2019-03-27T19:07:05.161Z,11.17
2019-03-27T19:09:34.074Z,11.50
2019-03-27T19:12:03.449Z,13.80
2019-03-27T19:14:32.866Z,9.40
2019-03-27T19:17:01.537Z,18.50
2019-03-27T19:19:30.829Z,20.33
2019-03-27T19:22:00.279Z,28.73
2019-03-27T19:24:29.686Z,18.53
2019-03-27T19:26:58.995Z,29.17
2019-03-27T19:29:27.569Z,19.37
2019-03-27T19:31:56.165Z,18.47
2019-03-27T19:34:24.747Z,17.20
2019-03-27T19:36:54.123Z,16.83
2019-03-27T19:39:23.433Z,18.40
2019-03-27T19:41:52.875Z,14.77
2019-03-27T19:44:21.559Z,57.20
2019-03-27T19:46:50.215Z,31.13
2019-03-27T19:49:19.519Z,28.03
2019-03-27T19:51:49.025Z,12.47
2019-03-27T19:54:27.094Z,18.57
2019-03-27T19:56:48.641Z,13.53
2019-03-27T19:59:17.275Z,15.73
2019-03-27T20:01:46.577Z,14.70
2019-03-27T20:04:15.162Z,17.30
2019-03-27T20:06:44.338Z,19.90
2019-03-27T20:09:12.932Z,21.43
2019-03-27T20:11:41.630Z,19.73
2019-03-27T20:14:11.017Z,15.63
2019-03-27T20:16:39.587Z,23.53
2019-03-27T20:19:08.998Z,10.90
2019-03-27T20:21:37.585Z,16.90
2019-03-27T20:24:06.208Z,20.17
2019-03-27T20:26:35.629Z,15.87
2019-03-27T20:29:05.010Z,20.00
2019-03-27T20:31:34.309Z,19.47
2019-03-27T20:34:02.885Z,13.00
2019-03-27T20:36:31.466Z,14.50
2019-03-27T20:39:00.837Z,21.60
2019-03-27T20:41:30.134Z,11.13
2019-03-27T20:43:59.453Z,10.77
2019-03-27T20:46:29.391Z,12.10
2019-03-27T20:48:58.257Z,29.05
2019-03-27T20:51:27.734Z,11.90
2019-03-27T20:53:57.049Z,19.10
2019-03-27T20:56:25.664Z,20.88
2019-03-27T20:58:54.273Z,11.12
2019-03-27T21:01:23.689Z,11.17
2019-03-27T21:03:53.299Z,12.28
2019-03-27T21:06:23.501Z,10.80
2019-03-27T21:08:52.108Z,14.68
2019-03-27T21:11:21.412Z,11.35
2019-03-27T21:13:50.024Z,11.00
2019-03-27T21:16:19.325Z,9.58
2019-03-27T21:18:47.909Z,14.07
2019-03-27T21:21:17.261Z,10.68
2019-03-27T21:23:46.581Z,19.75
2019-03-27T21:26:15.893Z,13.93
2019-03-27T21:28:45.179Z,10.28
2019-03-27T21:31:13.777Z,12.50
2019-03-27T21:33:43.106Z,14.38
2019-03-27T21:36:12.018Z,17.95
2019-03-27T21:38:41.426Z,18.02
2019-03-27T21:41:10.105Z,12.30
2019-03-27T21:43:39.389Z,18.97
2019-03-27T21:46:07.990Z,12.82
2019-03-27T21:48:37.293Z,11.40
2019-03-27T21:51:05.968Z,12.37
2019-03-27T21:53:35.365Z,11.22
2019-03-27T21:56:04.729Z,10.53
2019-03-27T21:58:34.168Z,15.63
2019-03-27T22:01:02.801Z,20.17
2019-03-27T22:03:31.387Z,10.15
2019-03-27T22:06:00.786Z,20.00
2019-03-27T22:08:31.092Z,14.50
2019-03-27T22:10:59.689Z,17.57
2019-03-27T22:13:28.264Z,13.70
2019-03-27T22:15:57.566Z,14.85
2019-03-27T22:18:26.149Z,14.30
2019-03-27T22:20:55.525Z,30.02
2019-03-27T22:23:24.828Z,12.43
2019-03-27T22:25:54.172Z,25.27
2019-03-27T22:28:23.807Z,26.73
2019-03-27T22:30:53.217Z,23.83
2019-03-27T22:33:22.668Z,32.28
2019-03-27T22:35:52.297Z,12.13
2019-03-27T22:38:21.742Z,12.30
2019-03-27T22:40:50.330Z,12.03
2019-03-27T22:43:19.636Z,11.50
2019-03-27T22:45:48.225Z,12.58
2019-03-27T22:48:16.801Z,15.03
2019-03-27T22:50:46.117Z,34.38
2019-03-27T22:53:15.682Z,16.42
2019-03-27T22:55:50.358Z,18.67
2019-03-27T22:58:14.599Z,12.33
2019-03-27T23:00:48.440Z,20.43
2019-03-27T23:03:18.912Z,16.23
2019-03-27T23:05:48.077Z,14.85
2019-03-27T23:08:16.668Z,13.58
2019-03-27T23:10:46.093Z,18.67
2019-03-27T23:13:14.758Z,17.98
2019-03-27T23:15:44.071Z,14.63
2019-03-27T23:18:12.661Z,12.18
2019-03-27T23:20:41.965Z,15.83
2019-03-27T23:23:11.286Z,13.43
2019-03-27T23:25:40.593Z,13.18
2019-03-27T23:28:09.968Z,14.03
2019-03-27T23:30:39.265Z,15.65
2019-03-27T23:33:08.671Z,17.50
2019-03-27T23:35:37.965Z,21.57
2019-03-27T23:38:07.290Z,16.85
2019-03-27T23:40:35.900Z,15.55
2019-03-27T23:43:04.568Z,14.70
2019-03-27T23:45:35.668Z,16.45
2019-03-27T23:48:04.345Z,15.98
2019-03-27T23:50:33.929Z,21.33
2019-03-27T23:53:03.253Z,23.30
2019-03-27T23:55:33.107Z,18.65
2019-03-27T23:58:02.885Z,14.90
